createdAt,value
2023-02-11T00:01:34.775Z,77.01
2023-02-11T00:04:04.452Z,77.80
2023-02-11T00:06:34.842Z,77.75
2023-02-11T00:09:04.238Z,77.07
2023-02-11T00:11:32.554Z,76.20
2023-02-11T00:14:04.863Z,75.91
2023-02-11T00:16:33.036Z,75.66
2023-02-11T00:19:02.820Z,75.49
2023-02-11T00:21:32.203Z,75.58
2023-02-11T00:24:02.362Z,75.67
2023-02-11T00:26:34.391Z,75.74
2023-02-11T00:29:03.962Z,75.86
2023-02-11T00:31:33.659Z,75.90
2023-02-11T00:34:02.151Z,76.10
2023-02-11T00:36:30.276Z,76.00
2023-02-11T00:38:59.670Z,76.09
2023-02-11T00:41:30.045Z,76.03
2023-02-11T00:44:01.164Z,76.13
2023-02-11T00:46:29.742Z,76.28
2023-02-11T00:48:58.122Z,76.47
2023-02-11T00:51:28.492Z,76.26
2023-02-11T00:53:57.338Z,76.38
2023-02-11T00:56:25.606Z,76.33
2023-02-11T00:58:54.219Z,76.27
2023-02-11T01:01:22.204Z,76.62
2023-02-11T01:03:50.304Z,77.22
2023-02-11T01:06:18.995Z,76.79
2023-02-11T01:08:46.830Z,76.48
2023-02-11T01:11:18.383Z,76.46
2023-02-11T01:13:48.016Z,76.37
2023-02-11T01:16:19.387Z,76.13
2023-02-11T01:18:48.559Z,76.17
2023-02-11T01:21:19.066Z,76.53
2023-02-11T01:23:47.063Z,76.58
2023-02-11T01:26:14.939Z,76.42
2023-02-11T01:28:42.980Z,76.40
2023-02-11T01:31:11.121Z,76.69
2023-02-11T01:33:39.106Z,76.73
2023-02-11T01:36:11.568Z,76.75
2023-02-11T01:38:41.277Z,76.64
2023-02-11T01:41:14.601Z,77.05
2023-02-11T01:43:46.853Z,77.06
2023-02-11T01:46:20.883Z,77.09
2023-02-11T01:48:55.535Z,76.69
2023-02-11T01:51:48.315Z,76.70
2023-02-11T01:54:40.850Z,76.92
2023-02-11T01:57:22.315Z,76.67
2023-02-11T02:00:14.477Z,76.78
2023-02-11T02:02:54.319Z,76.90
2023-02-11T02:05:34.770Z,76.84
2023-02-11T02:08:21.368Z,76.38
2023-02-11T02:10:56.448Z,75.98
2023-02-11T02:13:25.345Z,75.81
2023-02-11T02:16:00.088Z,75.70
2023-02-11T02:18:31.069Z,75.43
2023-02-11T02:21:28.277Z,75.71
2023-02-11T02:24:13.870Z,75.83
2023-02-11T02:27:00.533Z,75.99
2023-02-11T02:29:37.866Z,75.88
2023-02-11T02:32:35.291Z,76.04
2023-02-11T02:35:34.300Z,75.89
2023-02-11T02:38:02.134Z,76.01
2023-02-11T02:40:34.992Z,76.35
2023-02-11T02:43:04.213Z,76.68
2023-02-11T02:45:33.323Z,76.48
2023-02-11T02:48:01.147Z,76.88
2023-02-11T02:50:33.933Z,77.21
2023-02-11T02:53:20.717Z,77.38
2023-02-11T02:56:06.524Z,76.92
2023-02-11T02:59:03.634Z,76.88
2023-02-11T03:01:56.256Z,76.76
2023-02-11T03:04:37.633Z,76.48
2023-02-11T03:07:29.732Z,76.46
2023-02-11T03:10:03.980Z,76.51
2023-02-11T03:12:34.982Z,76.62
2023-02-11T03:15:05.386Z,76.74
2023-02-11T03:17:36.038Z,76.57
2023-02-11T03:20:06.971Z,76.85
2023-02-11T03:22:41.555Z,77.03
2023-02-11T03:25:09.940Z,77.00
2023-02-11T03:27:47.209Z,77.76
2023-02-11T03:30:23.966Z,77.75
2023-02-11T03:33:14.785Z,77.81
2023-02-11T03:35:51.030Z,77.50
2023-02-11T03:38:34.957Z,77.53
2023-02-11T03:41:07.018Z,77.41
2023-02-11T03:43:42.134Z,77.25
2023-02-11T03:46:12.564Z,77.26
2023-02-11T03:48:55.124Z,77.12
2023-02-11T03:51:25.639Z,77.83
2023-02-11T03:53:57.894Z,77.77
2023-02-11T03:56:31.081Z,77.78
2023-02-11T03:58:59.009Z,77.56
2023-02-11T04:01:27.173Z,77.60
2023-02-11T04:03:55.162Z,77.64
2023-02-11T04:06:23.140Z,78.07
2023-02-11T04:08:51.031Z,77.98
2023-02-11T04:11:19.112Z,78.07
2023-02-11T04:13:46.987Z,78.42
2023-02-11T04:16:15.077Z,78.49
2023-02-11T04:18:42.984Z,78.16
2023-02-11T04:21:11.200Z,78.13
2023-02-11T04:23:39.140Z,77.99
2023-02-11T04:26:07.248Z,77.91
2023-02-11T04:28:36.410Z,77.87
2023-02-11T04:31:04.884Z,77.61
2023-02-11T04:33:32.927Z,77.84
2023-02-11T04:36:00.798Z,78.06
2023-02-11T04:38:28.609Z,77.95
2023-02-11T04:40:58.257Z,77.96
2023-02-11T04:43:26.229Z,77.43
2023-02-11T04:45:58.460Z,76.42
2023-02-11T04:48:26.754Z,76.50
2023-02-11T04:50:54.688Z,76.26
2023-02-11T04:53:22.980Z,75.89
2023-02-11T04:55:52.088Z,75.78
2023-02-11T04:58:20.545Z,75.63
2023-02-11T05:00:48.335Z,75.51
2023-02-11T05:03:16.553Z,75.39
2023-02-11T05:05:44.468Z,75.31
2023-02-11T05:08:12.536Z,75.11
2023-02-11T05:10:40.404Z,75.65
2023-02-11T05:13:08.317Z,75.82
2023-02-11T05:15:36.267Z,76.12
2023-02-11T05:18:04.679Z,75.99
2023-02-11T05:20:32.562Z,76.44
2023-02-11T05:23:00.418Z,76.69
2023-02-11T05:25:28.243Z,77.14
2023-02-11T05:27:56.241Z,77.53
2023-02-11T05:30:24.058Z,77.60
2023-02-11T05:32:52.336Z,76.91
2023-02-11T05:35:20.248Z,76.61
2023-02-11T05:37:48.092Z,76.81
2023-02-11T05:40:16.450Z,76.89
2023-02-11T05:42:44.478Z,76.95
2023-02-11T05:45:12.474Z,76.87
2023-02-11T05:47:40.339Z,77.01
2023-02-11T05:50:08.842Z,77.04
2023-02-11T05:52:36.792Z,77.26
2023-02-11T05:55:05.558Z,77.23
2023-02-11T05:57:33.461Z,77.05
2023-02-11T06:00:01.542Z,76.83
2023-02-11T06:02:40.386Z,76.74
2023-02-11T06:05:09.301Z,77.02
2023-02-11T06:07:39.708Z,76.86
2023-02-11T06:10:08.699Z,76.88
2023-02-11T06:12:39.410Z,77.04
2023-02-11T06:15:07.845Z,76.77
2023-02-11T06:17:37.505Z,76.87
2023-02-11T06:20:08.440Z,76.61
2023-02-11T06:22:36.573Z,76.65
2023-02-11T06:25:04.788Z,76.28
2023-02-11T06:27:32.766Z,76.21
2023-02-11T06:30:00.615Z,76.05
2023-02-11T06:32:43.379Z,76.18
2023-02-11T06:35:12.869Z,75.28
2023-02-11T06:37:42.292Z,75.84
2023-02-11T06:40:11.830Z,75.72
2023-02-11T06:42:39.935Z,75.78
2023-02-11T06:45:13.164Z,75.58
2023-02-11T06:47:41.659Z,75.54
2023-02-11T06:50:14.089Z,75.36
2023-02-11T06:52:42.059Z,75.06
2023-02-11T06:55:10.251Z,74.69
2023-02-11T06:57:43.510Z,74.96
2023-02-11T07:00:12.482Z,74.35
2023-02-11T07:02:40.577Z,74.39
2023-02-11T07:05:09.434Z,74.83
2023-02-11T07:07:37.944Z,74.61
2023-02-11T07:10:07.024Z,74.52
2023-02-11T07:12:35.043Z,74.61
2023-02-11T07:15:03.436Z,75.12
2023-02-11T07:17:31.345Z,75.25
2023-02-11T07:19:59.202Z,75.11
2023-02-11T07:22:27.425Z,75.22
2023-02-11T07:24:55.329Z,75.35
2023-02-11T07:27:23.334Z,75.26
2023-02-11T07:29:51.437Z,75.22
2023-02-11T07:32:19.613Z,75.04
2023-02-11T07:34:48.633Z,74.76
2023-02-11T07:37:16.811Z,74.49
2023-02-11T07:39:44.689Z,74.22
2023-02-11T07:42:12.777Z,74.18
2023-02-11T07:44:40.709Z,73.86
2023-02-11T07:47:08.879Z,73.63
2023-02-11T07:49:36.877Z,73.18
2023-02-11T07:52:04.861Z,73.16
2023-02-11T07:54:32.925Z,73.26
2023-02-11T07:57:00.772Z,72.66
2023-02-11T07:59:35.928Z,72.45
2023-02-11T08:02:04.040Z,72.52
2023-02-11T08:04:32.072Z,72.05
2023-02-11T08:07:00.057Z,71.83
2023-02-11T08:09:27.975Z,71.52
2023-02-11T08:11:55.905Z,71.62
2023-02-11T08:14:25.381Z,71.52
2023-02-11T08:16:53.488Z,71.54
2023-02-11T08:19:21.507Z,71.37
2023-02-11T08:21:50.101Z,71.29
2023-02-11T08:24:17.946Z,69.16
2023-02-11T08:26:46.052Z,68.57
2023-02-11T08:29:15.767Z,68.26
2023-02-11T08:31:47.235Z,68.20
2023-02-11T08:34:18.540Z,67.97
2023-02-11T08:36:47.914Z,66.61
2023-02-11T08:39:20.457Z,66.72
2023-02-11T08:41:54.057Z,65.93
2023-02-11T08:44:23.507Z,65.06
2023-02-11T08:46:51.993Z,65.43
2023-02-11T08:49:20.579Z,64.76
2023-02-11T08:51:49.725Z,64.46
2023-02-11T08:54:18.013Z,64.02
2023-02-11T08:56:46.381Z,63.95
2023-02-11T08:59:15.662Z,63.79
2023-02-11T09:01:44.665Z,62.94
2023-02-11T09:04:13.068Z,63.17
2023-02-11T09:06:41.469Z,62.77
2023-02-11T09:09:13.630Z,62.85
2023-02-11T09:11:43.325Z,62.93
2023-02-11T09:14:23.179Z,62.70
2023-02-11T09:16:51.934Z,62.29
2023-02-11T09:19:21.270Z,62.50
2023-02-11T09:21:49.617Z,61.46
2023-02-11T09:24:18.598Z,61.17
2023-02-11T09:26:46.645Z,61.55
2023-02-11T09:29:14.573Z,61.75
2023-02-11T09:31:42.801Z,61.78
2023-02-11T09:34:12.183Z,62.48
2023-02-11T09:36:41.596Z,62.42
2023-02-11T09:39:14.481Z,61.40
2023-02-11T09:41:54.599Z,61.82
2023-02-11T09:44:27.220Z,61.76
2023-02-11T09:46:59.817Z,62.23
2023-02-11T09:49:45.404Z,61.93
2023-02-11T09:52:53.053Z,61.93
2023-02-11T09:55:27.041Z,61.54
2023-02-11T09:57:56.380Z,61.59
2023-02-11T10:00:34.625Z,62.09
2023-02-11T10:03:38.809Z,61.94
2023-02-11T10:06:22.110Z,61.54
2023-02-11T10:09:12.943Z,62.02
2023-02-11T10:11:59.476Z,61.73
2023-02-11T10:15:09.633Z,62.02
2023-02-11T10:18:22.696Z,62.60
2023-02-11T10:21:23.529Z,62.72
2023-02-11T10:23:57.306Z,62.28
2023-02-11T10:26:30.989Z,61.31
2023-02-11T10:29:02.332Z,61.07
2023-02-11T10:31:42.069Z,61.20
2023-02-11T10:34:11.858Z,61.33
2023-02-11T10:36:43.405Z,61.53
2023-02-11T10:39:13.224Z,61.97
2023-02-11T10:41:46.298Z,62.15
2023-02-11T10:44:50.128Z,62.20
2023-02-11T10:47:22.807Z,62.28
2023-02-11T10:49:51.239Z,62.84
2023-02-11T10:52:30.607Z,63.29
2023-02-11T10:55:24.410Z,63.12
2023-02-11T10:58:02.981Z,63.43
2023-02-11T11:00:36.144Z,63.70
2023-02-11T11:03:17.750Z,63.94
2023-02-11T11:05:47.268Z,64.48
2023-02-11T11:08:16.599Z,64.58
2023-02-11T11:11:05.163Z,64.64
2023-02-11T11:13:42.524Z,64.95
2023-02-11T11:16:13.221Z,65.15
2023-02-11T11:18:43.917Z,65.56
2023-02-11T11:21:33.609Z,65.71
2023-02-11T11:24:03.904Z,65.88
2023-02-11T11:26:50.846Z,66.77
2023-02-11T11:29:26.962Z,66.75
2023-02-11T11:32:04.869Z,67.16
2023-02-11T11:34:32.849Z,67.67
2023-02-11T11:37:10.409Z,67.04
2023-02-11T11:39:40.025Z,67.20
2023-02-11T11:42:29.272Z,66.98
2023-02-11T11:45:02.618Z,66.46
2023-02-11T11:47:41.534Z,65.51
2023-02-11T11:50:28.128Z,65.67
2023-02-11T11:53:25.688Z,65.42
2023-02-11T11:56:30.096Z,65.19
2023-02-11T11:59:03.722Z,64.94
2023-02-11T12:02:06.221Z,64.89
2023-02-11T12:04:38.401Z,65.22
2023-02-11T12:07:12.720Z,65.28
2023-02-11T12:09:59.121Z,65.27
2023-02-11T12:12:39.362Z,65.01
2023-02-11T12:15:39.493Z,65.11
2023-02-11T12:18:54.186Z,64.68
2023-02-11T12:21:52.985Z,65.05
2023-02-11T12:24:48.990Z,65.09
2023-02-11T12:27:29.874Z,64.60
2023-02-11T12:30:08.078Z,64.95
2023-02-11T12:33:09.761Z,65.10
2023-02-11T12:36:00.205Z,65.40
2023-02-11T12:38:52.309Z,65.55
2023-02-11T12:42:24.042Z,65.57
2023-02-11T12:45:04.084Z,65.19
2023-02-11T12:47:56.701Z,65.70
2023-02-11T12:50:52.944Z,65.70
2023-02-11T12:53:56.410Z,65.29
2023-02-11T12:56:38.170Z,65.04
2023-02-11T12:59:16.166Z,65.16
2023-02-11T13:01:45.125Z,65.76
2023-02-11T13:04:53.960Z,66.27
2023-02-11T13:07:32.444Z,67.02
2023-02-11T13:10:15.673Z,66.66
2023-02-11T13:13:07.029Z,66.55
2023-02-11T13:15:35.547Z,66.83
2023-02-11T13:18:13.464Z,67.14
2023-02-11T13:20:51.790Z,67.52
2023-02-11T13:23:44.024Z,67.58
2023-02-11T13:26:20.873Z,67.89
2023-02-11T13:29:17.938Z,68.64
2023-02-11T13:31:56.571Z,68.83
2023-02-11T13:34:44.494Z,68.99
2023-02-11T13:37:26.660Z,68.74
2023-02-11T13:40:20.782Z,68.77
2023-02-11T13:42:57.931Z,68.83
2023-02-11T13:45:29.036Z,68.78
2023-02-11T13:48:04.529Z,68.77
2023-02-11T13:50:39.611Z,69.21
2023-02-11T13:53:08.971Z,69.09
2023-02-11T13:55:38.326Z,69.11
2023-02-11T13:58:06.280Z,69.18
2023-02-11T14:00:34.196Z,69.12
2023-02-11T14:03:30.209Z,69.33
2023-02-11T14:06:29.222Z,69.33
2023-02-11T14:09:09.676Z,69.38
2023-02-11T14:11:40.972Z,69.31
2023-02-11T14:14:24.424Z,69.56
2023-02-11T14:16:58.818Z,69.56
2023-02-11T14:19:45.135Z,69.60
2023-02-11T14:22:27.717Z,69.68
2023-02-11T14:24:59.453Z,69.82
2023-02-11T14:27:27.534Z,69.63
2023-02-11T14:30:23.068Z,69.59
2023-02-11T14:32:57.068Z,69.60
2023-02-11T14:35:39.556Z,69.25
2023-02-11T14:38:34.138Z,69.37
2023-02-11T14:41:22.522Z,69.55
2023-02-11T14:43:55.381Z,69.76
2023-02-11T14:46:25.305Z,69.92
2023-02-11T14:48:57.644Z,69.91
2023-02-11T14:51:31.584Z,70.02
2023-02-11T14:54:24.983Z,70.01
2023-02-11T14:57:12.440Z,69.98
2023-02-11T14:59:52.514Z,69.73
2023-02-11T15:02:23.934Z,69.78
2023-02-11T15:04:52.012Z,69.47
2023-02-11T15:07:20.052Z,69.81
2023-02-11T15:09:53.893Z,69.77
2023-02-11T15:12:28.353Z,69.75
2023-02-11T15:15:00.281Z,69.99
2023-02-11T15:17:31.934Z,70.18
2023-02-11T15:20:01.935Z,70.07
2023-02-11T15:22:36.506Z,70.19
2023-02-11T15:25:07.470Z,70.20
2023-02-11T15:27:48.312Z,70.37
2023-02-11T15:30:22.495Z,70.59
2023-02-11T15:32:58.143Z,70.78
2023-02-11T15:35:35.111Z,70.91
2023-02-11T15:38:04.400Z,71.05
2023-02-11T15:40:35.571Z,71.00
2023-02-11T15:43:09.116Z,71.36
2023-02-11T15:45:41.862Z,71.05
2023-02-11T15:48:17.388Z,71.01
2023-02-11T15:51:01.418Z,71.08
2023-02-11T15:53:33.027Z,71.55
2023-02-11T15:56:08.158Z,71.51
2023-02-11T15:58:38.383Z,71.74
2023-02-11T16:01:07.685Z,71.82
2023-02-11T16:03:36.369Z,72.21
2023-02-11T16:06:35.805Z,72.64
2023-02-11T16:09:12.758Z,72.66
2023-02-11T16:11:47.117Z,72.76
2023-02-11T16:14:31.188Z,72.85
2023-02-11T16:17:04.069Z,73.51
2023-02-11T16:19:34.038Z,73.53
2023-02-11T16:22:09.132Z,73.63
2023-02-11T16:24:39.279Z,74.01
2023-02-11T16:27:28.615Z,73.80
2023-02-11T16:29:57.971Z,73.91
2023-02-11T16:32:30.284Z,74.39
2023-02-11T16:35:01.382Z,74.59
2023-02-11T16:37:29.152Z,74.54
2023-02-11T16:39:58.296Z,74.36
2023-02-11T16:42:26.342Z,74.03
2023-02-11T16:44:54.406Z,73.79
2023-02-11T16:47:27.589Z,73.53
2023-02-11T16:49:56.950Z,73.46
2023-02-11T16:52:25.690Z,73.52
2023-02-11T16:54:53.866Z,73.49
2023-02-11T16:57:24.082Z,73.44
2023-02-11T16:59:52.994Z,73.28
2023-02-11T17:02:30.500Z,73.55
2023-02-11T17:05:01.934Z,73.52
2023-02-11T17:07:30.008Z,73.45
2023-02-11T17:09:58.265Z,73.58
2023-02-11T17:12:27.272Z,73.68
2023-02-11T17:14:55.308Z,73.74
2023-02-11T17:17:24.022Z,73.76
2023-02-11T17:19:52.074Z,73.64
2023-02-11T17:22:20.176Z,73.46
2023-02-11T17:24:48.213Z,73.74
2023-02-11T17:27:16.394Z,73.87
2023-02-11T17:29:44.454Z,73.66
2023-02-11T17:32:12.661Z,73.66
2023-02-11T17:34:40.935Z,73.42
2023-02-11T17:37:09.648Z,73.57
2023-02-11T17:39:39.891Z,73.73
2023-02-11T17:42:08.864Z,73.63
2023-02-11T17:44:37.354Z,73.58
2023-02-11T17:47:05.419Z,73.62
2023-02-11T17:49:33.487Z,73.78
2023-02-11T17:52:01.643Z,73.91
2023-02-11T17:54:29.672Z,73.62
2023-02-11T17:56:58.592Z,73.09
2023-02-11T17:59:28.571Z,72.93
2023-02-11T18:01:56.388Z,72.64
2023-02-11T18:04:24.422Z,72.45
2023-02-11T18:06:53.717Z,72.15
2023-02-11T18:09:21.663Z,71.94
2023-02-11T18:11:52.537Z,71.85
2023-02-11T18:14:22.282Z,71.24
2023-02-11T18:16:52.227Z,71.11
2023-02-11T18:19:20.679Z,70.89
2023-02-11T18:21:50.532Z,71.18
2023-02-11T18:24:18.723Z,71.27
2023-02-11T18:26:46.735Z,71.07
2023-02-11T18:29:15.033Z,70.96
2023-02-11T18:31:43.334Z,71.25
2023-02-11T18:34:14.832Z,71.20
2023-02-11T18:36:42.966Z,71.12
2023-02-11T18:39:11.069Z,71.33
2023-02-11T18:41:41.438Z,71.60
2023-02-11T18:44:11.063Z,71.50
2023-02-11T18:46:39.060Z,71.66
2023-02-11T18:49:07.339Z,71.66
2023-02-11T18:51:35.464Z,71.67
2023-02-11T18:54:03.690Z,71.66
2023-02-11T18:56:31.698Z,71.45
2023-02-11T18:59:01.463Z,70.96
2023-02-11T19:01:34.223Z,71.03
2023-02-11T19:04:04.681Z,70.77
2023-02-11T19:06:36.441Z,70.68
2023-02-11T19:09:10.102Z,70.65
2023-02-11T19:11:53.968Z,70.49
2023-02-11T19:14:27.299Z,70.52
2023-02-11T19:16:57.760Z,70.45
2023-02-11T19:19:29.615Z,70.54
2023-02-11T19:21:59.554Z,70.43
2023-02-11T19:24:29.062Z,69.99
2023-02-11T19:27:00.186Z,70.02
2023-02-11T19:29:28.691Z,70.13
2023-02-11T19:31:56.868Z,70.14
2023-02-11T19:34:25.136Z,70.02
2023-02-11T19:36:54.435Z,70.34
2023-02-11T19:39:24.816Z,74.20
2023-02-11T19:41:53.481Z,74.56
2023-02-11T19:44:21.637Z,71.81
2023-02-11T19:46:52.789Z,70.17
2023-02-11T19:49:26.047Z,69.42
2023-02-11T19:51:55.510Z,69.93
2023-02-11T19:54:26.259Z,69.54
2023-02-11T19:56:54.270Z,69.41
2023-02-11T19:59:22.480Z,68.92
2023-02-11T20:01:50.602Z,68.95
2023-02-11T20:04:20.146Z,69.27
2023-02-11T20:06:49.075Z,69.45
2023-02-11T20:09:17.233Z,69.24
2023-02-11T20:11:45.486Z,69.58
2023-02-11T20:14:15.316Z,69.34
2023-02-11T20:16:48.990Z,69.24
2023-02-11T20:19:21.581Z,69.24
2023-02-11T20:21:56.281Z,69.27
2023-02-11T20:24:28.250Z,69.51
2023-02-11T20:26:56.582Z,69.27
2023-02-11T20:29:26.028Z,69.70
2023-02-11T20:31:55.009Z,69.81
2023-02-11T20:34:25.037Z,69.54
2023-02-11T20:36:53.557Z,69.67
2023-02-11T20:39:23.541Z,69.53
2023-02-11T20:41:52.560Z,69.76
2023-02-11T20:44:24.544Z,69.94
2023-02-11T20:46:54.572Z,69.87
2023-02-11T20:49:24.650Z,69.94
2023-02-11T20:51:54.030Z,70.17
2023-02-11T20:54:23.695Z,70.48
2023-02-11T20:56:57.131Z,70.43
2023-02-11T20:59:28.649Z,70.48
2023-02-11T21:01:57.412Z,70.08
2023-02-11T21:04:30.886Z,69.99
2023-02-11T21:07:01.839Z,69.68
2023-02-11T21:09:33.368Z,69.89
2023-02-11T21:12:03.215Z,70.06
2023-02-11T21:14:31.316Z,70.12
2023-02-11T21:17:14.436Z,70.04
2023-02-11T21:19:54.564Z,70.11
2023-02-11T21:22:22.546Z,70.15
2023-02-11T21:24:51.121Z,70.47
2023-02-11T21:27:20.717Z,71.05
2023-02-11T21:29:54.444Z,71.12
2023-02-11T21:32:28.968Z,71.16
2023-02-11T21:35:00.543Z,71.18
2023-02-11T21:37:29.982Z,70.60
2023-02-11T21:39:58.284Z,70.48
2023-02-11T21:42:29.329Z,70.48
2023-02-11T21:44:59.444Z,70.60
2023-02-11T21:47:27.945Z,70.64
2023-02-11T21:49:56.130Z,70.82
2023-02-11T21:52:25.045Z,70.54
2023-02-11T21:54:53.015Z,70.92
2023-02-11T21:57:20.951Z,70.72
2023-02-11T21:59:48.964Z,70.92
2023-02-11T22:02:16.998Z,71.18
2023-02-11T22:04:45.074Z,70.85
2023-02-11T22:07:13.075Z,70.84
2023-02-11T22:09:41.882Z,70.73
2023-02-11T22:12:10.329Z,70.68
2023-02-11T22:14:38.914Z,70.90
2023-02-11T22:17:08.730Z,70.83
2023-02-11T22:19:36.730Z,71.07
2023-02-11T22:22:05.046Z,71.12
2023-02-11T22:24:33.376Z,71.05
2023-02-11T22:27:02.277Z,70.83
2023-02-11T22:29:30.385Z,71.02
2023-02-11T22:31:58.699Z,71.27
2023-02-11T22:34:26.692Z,71.10
2023-02-11T22:36:54.706Z,71.08
2023-02-11T22:39:23.046Z,71.22
2023-02-11T22:41:53.029Z,71.14
2023-02-11T22:44:21.892Z,71.16
2023-02-11T22:46:51.261Z,71.10
2023-02-11T22:49:21.461Z,70.96
2023-02-11T22:51:49.515Z,70.99
2023-02-11T22:54:19.278Z,70.87
2023-02-11T22:56:51.022Z,70.77
2023-02-11T22:59:19.426Z,71.12
2023-02-11T23:01:47.859Z,71.31
2023-02-11T23:04:19.190Z,71.29
2023-02-11T23:06:47.938Z,70.95
2023-02-11T23:09:16.692Z,70.81
2023-02-11T23:11:44.875Z,70.54
2023-02-11T23:14:12.934Z,70.83
2023-02-11T23:16:41.404Z,71.30
2023-02-11T23:19:10.893Z,70.70
2023-02-11T23:21:39.850Z,70.32
2023-02-11T23:24:12.205Z,70.73
2023-02-11T23:26:42.288Z,71.15
2023-02-11T23:29:11.185Z,70.91
2023-02-11T23:31:43.520Z,70.81
2023-02-11T23:34:15.082Z,71.07
2023-02-11T23:36:44.436Z,71.14
2023-02-11T23:39:15.567Z,71.12
2023-02-11T23:41:44.251Z,71.19
2023-02-11T23:44:12.202Z,71.33
2023-02-11T23:46:40.192Z,71.42
2023-02-11T23:49:08.146Z,71.53
2023-02-11T23:51:36.129Z,71.71
2023-02-11T23:54:04.188Z,72.28
2023-02-11T23:56:32.150Z,72.27
2023-02-11T23:59:00.124Z,72.29
